Sevilla La Nueva, Spain
Current Conditions -  °F | °C
As of 1:00 PM on Friday 19 Dec 2014 (Local Time) from LEVS Reporting Station
Clear Clear  
Wind Chill: 55°   Ceiling: Unl
Heat Index: 55°   Visibility: 5mi
Dew Point: 43°   Wind: 0mph
Humidity: 63%   Direction: NA
Pressure: 30.45"   Gusts: NA
Location:  40.35°N, 4.03°W
Report Text: LEVS 191200Z 00000KT 8000 NSC 13/06 Q1031
Loading
Personal Weather Stations






























Interactive Weather Map New forecast layout! Learn more

10-Day Weather Forecast

Advertisements
Track Severe Weather on mobile